Startpagina
METAR-TAF:

METAR-TAF

Vliegvelden :

Aeropuerto Internacional Rodríguez Ballón

Arequipa, Peru

breedte: 16-19S, lengte: 071-33W, hoogte: 2538 m

Actueel weer

Dit bericht is 48 minuten geleden gemaakt, om 21:00 UTC
Wind 8 kt uit het westzuidwesten, variërend tussen het zuidwesten en het westen
Temperatuur 15°C
Vochtigheid 59%
Druk 1027 hPa
Zicht 10 km of meer
geen wolken onder 1500 m en geen cumulonimbus

METAR: SPQU 202100Z 25008KT 220V280 CAVOK 15/07 Q1027 NOSIG RMK PP000

Tijdstip: 16:48 (21:48 UTC)

Verwachting

Dit bericht is 4 uur en het 48 minuten geleden gemaakt, om 17:00 UTC
Verwachting geldig van 20 om 18 UTC tot 21 om 18 UTC
Wind 10 kt uit het westzuidwesten
Zicht 10 km of meer
geen wolken onder 1500 m en geen cumulonimbus
Wijzigt naar
van 21 om 00 UTC tot 21 om 02 UTC
Wind 5 kt uit het noordoosten
Wijzigt naar
van 21 om 14 UTC tot 21 om 16 UTC
Wind 10 kt uit het westzuidwesten

TAF: SPQU 201700Z 2018/2118 25010KT CAVOK TX21/2019Z TN08/2110Z BECMG 2100/2102 05005KT BECMG 2114/2116 25010KT

Waarnemingen en weersverwachtingen van meer dan 4000 vliegvelden (METAR en TAF).

De beschikbare stations zijn de gele en rode punten op de kaart.

Ga met uw muis naar het station om de naam te zien.

Klik dan om waarnemingen en weersverwachtingen te zien.

kaart wijzigen: klik op de groene knoppen met een zwart kruis om in te zoomen, op de groene knop met een streepje om uit te zoomen of op de groene pijlen voor aangrenzende kaarten.


METAR-TAF: